createdAt,value
2023-04-29T00:00:15.025Z,161.06
2023-04-29T00:01:14.994Z,160.16
2023-04-29T00:02:14.984Z,159.75
2023-04-29T00:03:15.138Z,159.80
2023-04-29T00:04:15.239Z,160.06
2023-04-29T00:05:15.171Z,159.77
2023-04-29T00:06:15.213Z,159.75
2023-04-29T00:07:14.862Z,159.44
2023-04-29T00:08:14.841Z,160.52
2023-04-29T00:09:14.854Z,159.49
2023-04-29T00:10:14.841Z,160.79
2023-04-29T00:11:14.802Z,160.82
2023-04-29T00:12:14.786Z,160.72
2023-04-29T00:13:14.770Z,159.67
2023-04-29T00:14:14.738Z,158.97
2023-04-29T00:15:14.750Z,159.85
2023-04-29T00:16:14.711Z,160.23
2023-04-29T00:17:14.728Z,159.58
2023-04-29T00:18:14.686Z,159.86
2023-04-29T00:19:15.023Z,158.78
2023-04-29T00:20:14.667Z,159.82
2023-04-29T00:21:14.648Z,159.31
2023-04-29T00:22:14.644Z,160.27
2023-04-29T00:23:14.634Z,159.96
2023-04-29T00:24:14.610Z,160.60
2023-04-29T00:25:14.608Z,159.41
2023-04-29T00:26:14.591Z,159.76
2023-04-29T00:27:14.570Z,159.66
2023-04-29T00:28:14.575Z,159.86
2023-04-29T00:29:14.547Z,159.15
2023-04-29T00:30:14.530Z,159.38
2023-04-29T00:31:14.694Z,159.94
2023-04-29T00:32:14.497Z,159.17
2023-04-29T00:33:14.492Z,158.95
2023-04-29T00:34:14.487Z,158.62
2023-04-29T00:35:14.505Z,158.96
2023-04-29T00:36:14.483Z,159.37
2023-04-29T00:37:14.452Z,159.52
2023-04-29T00:38:14.443Z,158.75
2023-04-29T00:39:15.382Z,160.35
2023-04-29T00:40:14.413Z,160.74
2023-04-29T00:41:14.409Z,160.14
2023-04-29T00:42:14.384Z,159.58
2023-04-29T00:43:14.376Z,159.40
2023-04-29T00:44:14.422Z,158.58
2023-04-29T00:45:14.365Z,158.55
2023-04-29T00:46:14.380Z,159.36
2023-04-29T00:47:14.347Z,159.45
2023-04-29T00:48:14.322Z,160.21
2023-04-29T00:49:14.313Z,159.03
2023-04-29T00:50:14.296Z,158.92
2023-04-29T00:51:14.294Z,158.51
2023-04-29T00:52:14.264Z,159.25
2023-04-29T00:53:14.244Z,159.17
2023-04-29T00:54:14.239Z,158.26
2023-04-29T00:55:14.205Z,159.22
2023-04-29T00:56:14.194Z,157.89
2023-04-29T00:57:14.174Z,158.34
2023-04-29T00:58:14.162Z,158.56
2023-04-29T00:59:14.151Z,158.71
2023-04-29T01:00:14.144Z,157.29
2023-04-29T01:01:14.137Z,157.56
2023-04-29T01:02:14.090Z,157.89
2023-04-29T01:03:14.219Z,157.66
2023-04-29T01:04:14.247Z,157.63
2023-04-29T01:05:14.073Z,157.61
2023-04-29T01:06:14.011Z,158.17
2023-04-29T01:07:14.034Z,158.93
2023-04-29T01:08:15.362Z,158.03
2023-04-29T01:09:13.987Z,158.05
2023-04-29T01:10:13.971Z,157.60
2023-04-29T01:11:14.070Z,158.02
2023-04-29T01:12:13.970Z,158.30
2023-04-29T01:13:13.954Z,157.63
2023-04-29T01:14:13.925Z,159.08
2023-04-29T01:15:13.920Z,157.79
2023-04-29T01:16:13.935Z,158.27
2023-04-29T01:17:13.887Z,157.10
2023-04-29T01:18:13.871Z,158.02
2023-04-29T01:19:13.863Z,157.26
2023-04-29T01:20:13.861Z,156.21
2023-04-29T01:21:13.860Z,157.12
2023-04-29T01:22:13.822Z,157.13
2023-04-29T01:23:13.859Z,156.33
2023-04-29T01:24:13.792Z,156.66
2023-04-29T01:25:13.781Z,156.74
2023-04-29T01:26:13.770Z,157.27
2023-04-29T01:27:13.773Z,156.35
2023-04-29T01:28:13.738Z,156.08
2023-04-29T01:29:13.741Z,155.98
2023-04-29T01:30:13.713Z,156.39
2023-04-29T01:31:13.754Z,155.93
2023-04-29T01:32:13.717Z,157.33
2023-04-29T01:33:13.811Z,156.51
2023-04-29T01:34:13.675Z,155.65
2023-04-29T01:35:13.678Z,156.59
2023-04-29T01:36:13.653Z,157.01
2023-04-29T01:37:13.656Z,156.16
2023-04-29T01:38:13.625Z,157.04
2023-04-29T01:39:13.617Z,155.91
2023-04-29T01:40:13.622Z,157.53
2023-04-29T01:41:13.596Z,156.82
2023-04-29T01:42:13.585Z,156.04
2023-04-29T01:43:13.567Z,157.19
2023-04-29T01:44:13.556Z,156.52
2023-04-29T01:45:13.525Z,156.97
2023-04-29T01:46:13.565Z,156.74
2023-04-29T01:47:13.516Z,155.21
2023-04-29T01:48:13.507Z,157.11
2023-04-29T01:49:13.502Z,155.85
2023-04-29T01:50:13.497Z,155.09
2023-04-29T01:51:13.510Z,156.49
2023-04-29T01:52:13.510Z,156.82
2023-04-29T01:53:13.517Z,156.25
2023-04-29T01:54:13.502Z,156.12
2023-04-29T01:55:13.514Z,155.97
2023-04-29T01:56:13.519Z,155.35
2023-04-29T01:57:13.511Z,156.51
2023-04-29T01:58:13.520Z,155.81
2023-04-29T01:59:13.493Z,156.59
2023-04-29T02:00:13.525Z,155.93
2023-04-29T02:01:13.544Z,156.09
2023-04-29T02:02:13.483Z,156.54
2023-04-29T02:03:13.594Z,156.63
2023-04-29T02:04:13.535Z,155.76
2023-04-29T02:05:13.472Z,156.59
2023-04-29T02:06:13.454Z,156.09
2023-04-29T02:07:13.425Z,156.17
2023-04-29T02:08:13.403Z,156.33
2023-04-29T02:09:13.371Z,156.42
2023-04-29T02:10:13.368Z,156.74
2023-04-29T02:11:13.330Z,156.87
2023-04-29T02:12:13.296Z,156.51
2023-04-29T02:13:13.268Z,156.59
2023-04-29T02:14:13.243Z,157.18
2023-04-29T02:15:13.238Z,157.15
2023-04-29T02:16:13.266Z,155.68
2023-04-29T02:17:13.171Z,156.40
2023-04-29T02:18:13.148Z,156.63
2023-04-29T02:19:13.140Z,155.67
2023-04-29T02:20:13.128Z,157.14
2023-04-29T02:21:13.094Z,156.57
2023-04-29T02:22:13.080Z,156.86
2023-04-29T02:23:13.049Z,156.47
2023-04-29T02:24:13.025Z,157.13
2023-04-29T02:25:13.018Z,156.36
2023-04-29T02:26:12.991Z,156.28
2023-04-29T02:27:12.951Z,156.62
2023-04-29T02:28:12.934Z,156.70
2023-04-29T02:29:12.915Z,156.98
2023-04-29T02:30:12.888Z,156.29
2023-04-29T02:31:12.875Z,157.41
2023-04-29T02:32:12.882Z,156.03
2023-04-29T02:33:12.880Z,156.40
2023-04-29T02:34:12.793Z,156.68
2023-04-29T02:35:12.786Z,155.22
2023-04-29T02:36:12.771Z,155.45
2023-04-29T02:37:12.728Z,155.74
2023-04-29T02:38:12.700Z,156.03
2023-04-29T02:39:12.685Z,155.87
2023-04-29T02:40:12.660Z,156.52
2023-04-29T02:41:12.654Z,156.59
2023-04-29T02:42:12.630Z,156.65
2023-04-29T02:43:12.589Z,157.06
2023-04-29T02:44:12.594Z,156.65
2023-04-29T02:45:12.537Z,157.51
2023-04-29T02:46:12.610Z,156.84
2023-04-29T02:47:12.505Z,157.59
2023-04-29T02:48:12.604Z,155.96
2023-04-29T02:49:12.442Z,156.21
2023-04-29T02:50:12.446Z,155.75
2023-04-29T02:51:12.401Z,155.77
2023-04-29T02:52:12.437Z,156.80
2023-04-29T02:53:12.412Z,156.77
2023-04-29T02:54:12.358Z,156.22
2023-04-29T02:55:12.312Z,156.76
2023-04-29T02:56:12.274Z,156.72
2023-04-29T02:57:12.241Z,156.46
2023-04-29T02:58:12.218Z,155.69
2023-04-29T02:59:12.184Z,155.91
2023-04-29T03:00:12.176Z,156.44
2023-04-29T03:01:12.159Z,156.75
2023-04-29T03:02:12.224Z,155.90
2023-04-29T03:03:12.168Z,156.43
2023-04-29T03:04:12.229Z,156.48
2023-04-29T03:05:12.089Z,157.56
2023-04-29T03:06:12.036Z,157.72
2023-04-29T03:07:12.007Z,156.78
2023-04-29T03:08:11.964Z,157.09
2023-04-29T03:09:11.950Z,157.23
2023-04-29T03:10:11.920Z,156.26
2023-04-29T03:11:11.898Z,156.55
2023-04-29T03:12:11.889Z,156.16
2023-04-29T03:13:11.865Z,156.45
2023-04-29T03:14:11.827Z,156.42
2023-04-29T03:15:11.807Z,156.92
2023-04-29T03:16:11.842Z,155.97
2023-04-29T03:17:11.776Z,157.46
2023-04-29T03:18:11.773Z,157.17
2023-04-29T03:19:11.725Z,157.47
2023-04-29T03:20:11.712Z,156.16
2023-04-29T03:21:11.683Z,156.66
2023-04-29T03:22:11.647Z,156.37
2023-04-29T03:23:11.619Z,157.48
2023-04-29T03:24:11.615Z,156.46
2023-04-29T03:25:11.602Z,157.58
2023-04-29T03:26:11.614Z,156.09
2023-04-29T03:27:11.566Z,157.42
2023-04-29T03:28:11.501Z,155.76
2023-04-29T03:29:11.489Z,155.93
2023-04-29T03:30:11.460Z,154.76
2023-04-29T03:31:11.465Z,156.52
2023-04-29T03:32:11.421Z,157.65
2023-04-29T03:33:11.403Z,156.27
2023-04-29T03:34:11.392Z,157.51
2023-04-29T03:35:12.848Z,156.03
2023-04-29T03:36:11.335Z,157.92
2023-04-29T03:37:11.339Z,156.24
2023-04-29T03:38:11.276Z,155.16
2023-04-29T03:39:11.266Z,156.97
2023-04-29T03:40:11.234Z,156.94
2023-04-29T03:41:11.216Z,155.88
2023-04-29T03:42:11.196Z,157.78
2023-04-29T03:43:11.146Z,156.90
2023-04-29T03:44:11.110Z,156.00
2023-04-29T03:45:11.101Z,156.65
2023-04-29T03:46:11.131Z,155.90
2023-04-29T03:47:11.058Z,154.95
2023-04-29T03:48:11.025Z,155.24
2023-04-29T03:49:11.018Z,155.75
2023-04-29T03:50:10.971Z,156.15
2023-04-29T03:51:10.950Z,156.22
2023-04-29T03:52:10.955Z,156.73
2023-04-29T03:53:10.888Z,155.77
2023-04-29T03:54:10.851Z,154.99
2023-04-29T03:55:10.851Z,156.19
2023-04-29T03:56:10.811Z,156.29
2023-04-29T03:57:10.791Z,155.78
2023-04-29T03:58:10.747Z,154.11
2023-04-29T03:59:10.744Z,155.16
2023-04-29T04:00:10.725Z,155.22
2023-04-29T04:01:10.671Z,156.39
2023-04-29T04:02:10.676Z,156.71
2023-04-29T04:03:10.747Z,155.16
2023-04-29T04:04:10.692Z,156.40
2023-04-29T04:05:10.699Z,156.32
2023-04-29T04:06:10.535Z,154.48
2023-04-29T04:07:10.514Z,155.75
2023-04-29T04:08:10.483Z,155.82
2023-04-29T04:09:10.462Z,154.89
2023-04-29T04:10:10.456Z,154.92
2023-04-29T04:11:10.427Z,155.75
2023-04-29T04:12:10.408Z,156.45
2023-04-29T04:13:10.365Z,155.30
2023-04-29T04:14:10.363Z,155.97
2023-04-29T04:15:10.328Z,155.64
2023-04-29T04:16:10.348Z,156.11
2023-04-29T04:17:10.278Z,155.70
2023-04-29T04:18:10.343Z,155.84
2023-04-29T04:19:10.228Z,156.09
2023-04-29T04:20:10.230Z,156.40
2023-04-29T04:21:10.237Z,155.61
2023-04-29T04:22:11.630Z,156.51
2023-04-29T04:23:10.188Z,157.36
2023-04-29T04:24:10.124Z,156.18
2023-04-29T04:25:10.108Z,155.97
2023-04-29T04:26:10.070Z,155.81
2023-04-29T04:27:10.056Z,156.49
2023-04-29T04:28:10.015Z,155.82
2023-04-29T04:29:10.068Z,154.72
2023-04-29T04:30:09.966Z,155.08
2023-04-29T04:31:10.003Z,155.22
2023-04-29T04:32:10.123Z,155.43
2023-04-29T04:33:09.899Z,155.97
2023-04-29T04:34:09.861Z,155.46
2023-04-29T04:35:09.829Z,156.66
2023-04-29T04:36:09.799Z,155.66
2023-04-29T04:37:09.785Z,155.42
2023-04-29T04:38:09.753Z,155.61
2023-04-29T04:39:09.717Z,155.23
2023-04-29T04:40:09.704Z,155.12
2023-04-29T04:41:09.759Z,154.29
2023-04-29T04:42:09.653Z,154.31
2023-04-29T04:43:09.621Z,153.23
2023-04-29T04:44:09.590Z,154.05
2023-04-29T04:45:09.554Z,153.78
2023-04-29T04:46:09.589Z,155.74
2023-04-29T04:47:09.504Z,153.82
2023-04-29T04:48:09.712Z,153.94
2023-04-29T04:49:09.456Z,153.12
2023-04-29T04:50:09.413Z,153.13
2023-04-29T04:51:09.396Z,154.53
2023-04-29T04:52:09.378Z,154.30
2023-04-29T04:53:09.404Z,154.29
2023-04-29T04:54:09.383Z,154.85
2023-04-29T04:55:09.378Z,155.46
2023-04-29T04:56:09.387Z,154.65
2023-04-29T04:57:09.402Z,153.35
2023-04-29T04:58:09.369Z,153.73
2023-04-29T04:59:09.407Z,155.18
2023-04-29T05:00:09.414Z,155.05
2023-04-29T05:01:09.502Z,155.29
2023-04-29T05:02:09.474Z,154.21
2023-04-29T05:03:09.576Z,154.33
2023-04-29T05:04:09.722Z,154.10
2023-04-29T05:05:09.491Z,154.77
2023-04-29T05:06:09.512Z,155.57
2023-04-29T05:07:09.539Z,154.23
2023-04-29T05:08:09.573Z,156.24
2023-04-29T05:09:09.622Z,154.80
2023-04-29T05:10:09.651Z,154.78
2023-04-29T05:11:09.640Z,154.75
2023-04-29T05:12:09.655Z,154.68
2023-04-29T05:13:09.652Z,154.42
2023-04-29T05:14:09.641Z,153.58
2023-04-29T05:15:09.638Z,151.67
2023-04-29T05:16:09.673Z,155.20
2023-04-29T05:17:09.634Z,153.96
2023-04-29T05:18:09.614Z,153.90
2023-04-29T05:19:09.640Z,154.36
2023-04-29T05:20:09.651Z,153.89
2023-04-29T05:21:09.651Z,155.70
2023-04-29T05:22:09.690Z,155.15
2023-04-29T05:23:09.747Z,153.32
2023-04-29T05:24:09.814Z,154.75
2023-04-29T05:25:09.839Z,154.37
2023-04-29T05:26:09.864Z,154.87
2023-04-29T05:27:09.915Z,154.38
2023-04-29T05:28:09.964Z,153.60
2023-04-29T05:29:09.998Z,153.89
2023-04-29T05:30:10.053Z,155.12
2023-04-29T05:31:10.128Z,153.60
2023-04-29T05:32:10.177Z,154.21
2023-04-29T05:33:10.199Z,152.95
2023-04-29T05:34:10.234Z,153.19
2023-04-29T05:35:10.320Z,153.98
2023-04-29T05:36:10.343Z,154.12
2023-04-29T05:37:10.367Z,154.64
2023-04-29T05:38:10.389Z,153.58
2023-04-29T05:39:10.428Z,154.40
2023-04-29T05:40:10.475Z,153.51
2023-04-29T05:41:10.515Z,153.42
2023-04-29T05:42:10.581Z,154.39
2023-04-29T05:43:10.585Z,153.38
2023-04-29T05:44:10.604Z,153.40
2023-04-29T05:45:10.629Z,154.11
2023-04-29T05:46:10.642Z,154.17
2023-04-29T05:47:10.636Z,152.79
2023-04-29T05:48:10.644Z,152.59
2023-04-29T05:49:10.650Z,153.73
2023-04-29T05:50:10.654Z,153.31
2023-04-29T05:51:10.657Z,154.09
2023-04-29T05:52:10.681Z,151.90
2023-04-29T05:53:10.650Z,154.05
2023-04-29T05:54:10.674Z,152.05
2023-04-29T05:55:10.671Z,153.89
2023-04-29T05:56:10.691Z,154.63
2023-04-29T05:57:10.726Z,153.57
2023-04-29T05:58:10.730Z,152.27
2023-04-29T05:59:10.733Z,154.12
2023-04-29T06:00:10.738Z,153.26
2023-04-29T06:01:10.783Z,152.90
2023-04-29T06:02:10.786Z,153.38
2023-04-29T06:03:10.910Z,153.01
2023-04-29T06:04:10.869Z,152.97
2023-04-29T06:05:11.201Z,152.88
2023-04-29T06:06:11.048Z,153.63
2023-04-29T06:07:10.930Z,152.20
2023-04-29T06:08:10.967Z,151.52
2023-04-29T06:09:23.991Z,152.06
2023-04-29T06:10:11.992Z,152.18
2023-04-29T06:11:11.027Z,152.59
2023-04-29T06:12:10.951Z,152.73
2023-04-29T06:13:11.001Z,153.11
2023-04-29T06:14:10.909Z,152.57
2023-04-29T06:15:10.890Z,152.07
2023-04-29T06:16:10.984Z,154.12
2023-04-29T06:17:10.870Z,152.71
2023-04-29T06:18:10.856Z,151.78
2023-04-29T06:19:10.931Z,152.94
2023-04-29T06:20:10.918Z,152.45
2023-04-29T06:21:10.968Z,152.74
2023-04-29T06:22:11.032Z,152.19
2023-04-29T06:23:11.072Z,152.00
2023-04-29T06:24:11.113Z,152.50
2023-04-29T06:25:11.152Z,153.13
2023-04-29T06:26:11.184Z,153.01
2023-04-29T06:27:11.239Z,152.18
2023-04-29T06:28:11.285Z,152.27
2023-04-29T06:29:11.303Z,153.01
2023-04-29T06:30:11.347Z,151.34
2023-04-29T06:31:11.426Z,153.06
2023-04-29T06:32:11.409Z,150.18
2023-04-29T06:33:11.565Z,150.43
2023-04-29T06:34:11.499Z,150.21
2023-04-29T06:35:11.501Z,150.60
2023-04-29T06:36:11.532Z,150.59
2023-04-29T06:37:11.574Z,150.35
2023-04-29T06:38:11.592Z,148.91
2023-04-29T06:39:11.619Z,149.95
2023-04-29T06:40:11.644Z,147.86
2023-04-29T06:41:11.653Z,143.67
2023-04-29T06:42:11.697Z,143.81
2023-04-29T06:43:11.668Z,146.11
2023-04-29T06:44:11.702Z,144.38
2023-04-29T06:45:11.680Z,139.04
2023-04-29T06:46:11.676Z,133.18
2023-04-29T06:47:11.808Z,134.69
2023-04-29T06:48:11.822Z,135.11
2023-04-29T06:49:11.658Z,135.24
2023-04-29T06:50:11.649Z,135.64
2023-04-29T06:51:11.603Z,136.95
2023-04-29T06:52:11.662Z,138.31
2023-04-29T06:53:11.540Z,140.84
2023-04-29T06:54:11.553Z,138.39
2023-04-29T06:55:11.510Z,134.39
2023-04-29T06:56:11.452Z,130.39
2023-04-29T06:57:11.433Z,126.86
2023-04-29T06:58:11.395Z,124.94
2023-04-29T06:59:11.405Z,125.35
2023-04-29T07:00:11.368Z,122.27
2023-04-29T07:01:11.379Z,120.38
2023-04-29T07:02:11.312Z,123.65
2023-04-29T07:03:11.455Z,124.21
2023-04-29T07:04:11.266Z,124.51
2023-04-29T07:05:11.213Z,122.47
2023-04-29T07:06:11.208Z,125.07
2023-04-29T07:07:11.207Z,126.37
2023-04-29T07:08:11.214Z,125.07
2023-04-29T07:09:11.240Z,125.99
2023-04-29T07:10:11.216Z,126.25
2023-04-29T07:11:11.181Z,128.00
2023-04-29T07:12:11.192Z,126.99
2023-04-29T07:13:11.205Z,124.19
2023-04-29T07:14:11.189Z,124.40
2023-04-29T07:15:11.207Z,122.77
2023-04-29T07:16:11.236Z,121.38
2023-04-29T07:17:13.913Z,124.38
2023-04-29T07:18:11.237Z,126.98
2023-04-29T07:19:11.177Z,127.99
2023-04-29T07:20:11.093Z,126.52
2023-04-29T07:21:11.078Z,121.23
2023-04-29T07:22:11.010Z,121.88
2023-04-29T07:23:10.994Z,122.16
2023-04-29T07:24:10.929Z,122.38
2023-04-29T07:25:10.899Z,122.26
2023-04-29T07:26:10.864Z,117.64
2023-04-29T07:27:10.826Z,118.31
2023-04-29T07:28:10.810Z,117.13
2023-04-29T07:29:10.759Z,115.38
2023-04-29T07:30:10.716Z,112.77
2023-04-29T07:31:10.768Z,112.58
2023-04-29T07:32:10.667Z,112.64
2023-04-29T07:33:10.610Z,110.69
2023-04-29T07:34:10.585Z,110.62
2023-04-29T07:35:10.599Z,109.49
2023-04-29T07:36:10.522Z,107.12
2023-04-29T07:37:10.479Z,107.19
2023-04-29T07:38:10.454Z,107.29
2023-04-29T07:39:10.415Z,107.57
2023-04-29T07:40:10.375Z,107.77
2023-04-29T07:41:10.340Z,107.02
2023-04-29T07:42:10.306Z,104.91
2023-04-29T07:43:10.282Z,106.17
2023-04-29T07:44:10.250Z,103.52
2023-04-29T07:45:10.215Z,103.16
2023-04-29T07:46:10.225Z,101.92
2023-04-29T07:47:10.158Z,102.43
2023-04-29T07:48:10.099Z,100.66
2023-04-29T07:49:10.068Z,104.02
2023-04-29T07:50:10.032Z,100.90
2023-04-29T07:51:09.984Z,102.75
2023-04-29T07:52:09.958Z,99.63
2023-04-29T07:53:09.935Z,98.93
2023-04-29T07:54:09.882Z,97.49
2023-04-29T07:55:09.840Z,97.05
2023-04-29T07:56:09.827Z,99.48
2023-04-29T07:57:09.769Z,96.63
2023-04-29T07:58:09.738Z,94.88
2023-04-29T07:59:09.698Z,92.90
2023-04-29T08:00:09.663Z,93.27
2023-04-29T08:01:09.630Z,91.16
2023-04-29T08:02:09.596Z,92.68
2023-04-29T08:03:09.651Z,91.14
2023-04-29T08:04:09.751Z,91.26
2023-04-29T08:05:09.837Z,91.31
2023-04-29T08:06:09.570Z,90.83
2023-04-29T08:07:09.424Z,87.43
2023-04-29T08:08:09.406Z,88.91
2023-04-29T08:09:09.340Z,88.48
2023-04-29T08:10:09.332Z,88.52
2023-04-29T08:11:09.270Z,88.30
2023-04-29T08:12:09.238Z,86.23
2023-04-29T08:13:09.218Z,83.26
2023-04-29T08:14:09.175Z,83.96
2023-04-29T08:15:09.940Z,80.37
2023-04-29T08:16:09.163Z,82.43
2023-04-29T08:17:09.082Z,81.26
2023-04-29T08:18:09.187Z,80.80
2023-04-29T08:19:09.014Z,80.20
2023-04-29T08:20:08.986Z,79.27
2023-04-29T08:21:08.963Z,77.01
2023-04-29T08:22:09.055Z,76.69
2023-04-29T08:23:09.028Z,75.76
2023-04-29T08:24:08.963Z,72.71
2023-04-29T08:25:09.025Z,70.19
2023-04-29T08:26:09.119Z,69.02
2023-04-29T08:27:09.021Z,68.38
2023-04-29T08:28:09.067Z,66.45
2023-04-29T08:29:09.067Z,65.02
2023-04-29T08:30:09.099Z,65.27
2023-04-29T08:31:09.123Z,63.00
2023-04-29T08:32:09.094Z,62.75
2023-04-29T08:33:09.118Z,60.64
2023-04-29T08:34:09.134Z,58.99
2023-04-29T08:35:09.131Z,57.23
2023-04-29T08:36:09.150Z,55.82
2023-04-29T08:37:09.168Z,54.14
2023-04-29T08:38:09.189Z,56.00
2023-04-29T08:39:09.230Z,56.58
2023-04-29T08:40:09.279Z,58.16
2023-04-29T08:41:09.304Z,56.18
2023-04-29T08:42:09.318Z,54.64
2023-04-29T08:43:09.359Z,55.95
2023-04-29T08:44:09.397Z,54.08
2023-04-29T08:45:09.426Z,53.28
2023-04-29T08:46:09.448Z,53.38
2023-04-29T08:47:09.357Z,53.43
2023-04-29T08:48:09.439Z,53.39
2023-04-29T08:49:09.275Z,53.58
2023-04-29T08:50:09.281Z,53.46
2023-04-29T08:51:09.202Z,53.70
2023-04-29T08:52:09.164Z,50.55
2023-04-29T08:53:09.134Z,46.37
2023-04-29T08:54:09.102Z,47.00
2023-04-29T08:55:09.048Z,44.05
2023-04-29T08:56:09.016Z,43.47
2023-04-29T08:57:09.013Z,44.71
2023-04-29T08:58:08.979Z,44.85
2023-04-29T08:59:08.986Z,40.68
2023-04-29T09:00:08.982Z,41.69
2023-04-29T09:01:09.045Z,42.87
2023-04-29T09:02:09.058Z,38.19
2023-04-29T09:03:09.124Z,40.75
2023-04-29T09:04:09.133Z,40.23
2023-04-29T09:05:09.166Z,39.19
2023-04-29T09:06:09.152Z,35.29
2023-04-29T09:07:09.156Z,35.98
2023-04-29T09:08:09.198Z,36.37
2023-04-29T09:09:09.157Z,36.47
2023-04-29T09:10:09.135Z,36.76
2023-04-29T09:11:09.064Z,35.72
2023-04-29T09:12:09.045Z,33.37
2023-04-29T09:13:09.000Z,37.71
2023-04-29T09:14:08.960Z,38.77
2023-04-29T09:15:08.925Z,34.98
2023-04-29T09:16:08.919Z,34.94
2023-04-29T09:17:08.851Z,31.33
2023-04-29T09:18:08.852Z,32.18
2023-04-29T09:19:08.792Z,32.12
2023-04-29T09:20:08.803Z,33.30
2023-04-29T09:21:08.819Z,30.64
2023-04-29T09:22:08.880Z,30.97
2023-04-29T09:23:08.879Z,32.13
2023-04-29T09:24:08.876Z,30.70
2023-04-29T09:25:08.919Z,29.06
2023-04-29T09:26:08.945Z,33.00
2023-04-29T09:27:08.988Z,30.65
2023-04-29T09:28:09.020Z,30.68
2023-04-29T09:29:09.049Z,32.13
2023-04-29T09:30:09.071Z,31.08
2023-04-29T09:31:09.142Z,33.90
2023-04-29T09:32:09.148Z,36.04
2023-04-29T09:33:09.293Z,32.52
2023-04-29T09:34:09.204Z,36.39
2023-04-29T09:35:09.237Z,33.41
2023-04-29T09:36:09.275Z,34.49
2023-04-29T09:37:09.307Z,30.69
2023-04-29T09:38:09.341Z,27.66
2023-04-29T09:39:09.349Z,28.65
2023-04-29T09:40:09.366Z,30.36
2023-04-29T09:41:09.382Z,33.79
2023-04-29T09:42:09.423Z,37.21
2023-04-29T09:43:09.456Z,34.64
2023-04-29T09:44:09.482Z,33.45
2023-04-29T09:45:09.513Z,35.07
2023-04-29T09:46:09.536Z,32.02
2023-04-29T09:47:09.579Z,38.87
2023-04-29T09:48:09.567Z,36.74
2023-04-29T09:49:09.586Z,38.56
2023-04-29T09:50:09.624Z,41.04
2023-04-29T09:51:09.656Z,45.49
2023-04-29T09:52:09.719Z,41.26
2023-04-29T09:53:09.711Z,40.66
2023-04-29T09:54:09.726Z,42.00
2023-04-29T09:55:09.747Z,41.99
2023-04-29T09:56:09.777Z,40.88
2023-04-29T09:57:09.813Z,37.77
2023-04-29T09:58:10.548Z,41.02
2023-04-29T09:59:09.848Z,44.70
2023-04-29T10:00:09.876Z,47.78
2023-04-29T10:01:10.001Z,46.92
2023-04-29T10:02:09.913Z,49.80
2023-04-29T10:03:09.996Z,47.16
2023-04-29T10:04:09.964Z,44.82
2023-04-29T10:05:10.045Z,45.39
2023-04-29T10:06:10.038Z,46.97
2023-04-29T10:07:10.019Z,46.86
2023-04-29T10:08:10.034Z,50.27
2023-04-29T10:09:10.061Z,48.83
2023-04-29T10:10:10.082Z,44.84
2023-04-29T10:11:10.092Z,48.75
2023-04-29T10:12:10.126Z,49.91
2023-04-29T10:13:10.154Z,47.19
2023-04-29T10:14:10.120Z,47.24
2023-04-29T10:15:10.100Z,45.87
2023-04-29T10:16:10.070Z,43.18
2023-04-29T10:17:10.000Z,41.29
2023-04-29T10:18:10.034Z,41.94
2023-04-29T10:19:09.934Z,35.64
2023-04-29T10:20:09.887Z,36.34
2023-04-29T10:21:09.872Z,35.16
2023-04-29T10:22:09.822Z,34.04
2023-04-29T10:23:09.783Z,33.71
2023-04-29T10:24:09.808Z,31.59
2023-04-29T10:25:09.815Z,28.24
2023-04-29T10:26:09.830Z,32.61
2023-04-29T10:27:09.855Z,31.77
2023-04-29T10:28:09.890Z,31.03
2023-04-29T10:29:09.903Z,25.38
2023-04-29T10:30:09.911Z,27.76
2023-04-29T10:31:10.038Z,28.19
2023-04-29T10:32:09.951Z,30.38
2023-04-29T10:33:10.009Z,30.47
2023-04-29T10:34:10.046Z,32.42
2023-04-29T10:35:10.032Z,30.95
2023-04-29T10:36:10.047Z,32.59
2023-04-29T10:37:10.063Z,35.49
2023-04-29T10:38:10.100Z,36.27
2023-04-29T10:39:10.124Z,35.40
2023-04-29T10:40:10.144Z,36.84
2023-04-29T10:41:10.243Z,40.54
2023-04-29T10:42:10.182Z,37.10
2023-04-29T10:43:10.258Z,38.04
2023-04-29T10:44:10.230Z,35.12
2023-04-29T10:45:10.263Z,31.15
2023-04-29T10:46:10.433Z,32.85
2023-04-29T10:47:10.323Z,31.00
2023-04-29T10:48:10.309Z,34.60
2023-04-29T10:49:10.323Z,35.92
2023-04-29T10:50:10.359Z,39.75
2023-04-29T10:51:10.373Z,37.84
2023-04-29T10:52:10.378Z,37.96
2023-04-29T10:53:10.407Z,38.34
2023-04-29T10:54:10.410Z,39.44
2023-04-29T10:55:10.444Z,36.75
2023-04-29T10:56:10.444Z,37.55
2023-04-29T10:57:10.488Z,36.77
2023-04-29T10:58:10.485Z,35.10
2023-04-29T10:59:10.510Z,39.48
2023-04-29T11:00:10.517Z,37.44
2023-04-29T11:01:10.587Z,38.66
2023-04-29T11:02:10.556Z,36.90
2023-04-29T11:03:10.641Z,38.91
2023-04-29T11:04:10.883Z,37.86
2023-04-29T11:05:10.675Z,35.74
2023-04-29T11:06:10.684Z,37.47
2023-04-29T11:07:10.667Z,38.71
2023-04-29T11:08:10.707Z,37.71
2023-04-29T11:09:10.721Z,38.09
2023-04-29T11:10:10.735Z,37.89
2023-04-29T11:11:10.753Z,36.28
2023-04-29T11:12:10.783Z,39.39
2023-04-29T11:13:10.806Z,39.05
2023-04-29T11:14:10.825Z,40.73
2023-04-29T11:15:10.845Z,41.34
2023-04-29T11:16:10.920Z,41.32
2023-04-29T11:17:10.875Z,40.73
2023-04-29T11:18:10.961Z,41.67
2023-04-29T11:19:10.939Z,38.01
2023-04-29T11:20:10.951Z,36.13
2023-04-29T11:21:10.999Z,38.23
2023-04-29T11:22:11.041Z,39.56
2023-04-29T11:23:11.049Z,36.88
2023-04-29T11:24:11.038Z,37.82
2023-04-29T11:25:11.063Z,37.95
2023-04-29T11:26:11.107Z,26.65
2023-04-29T11:27:11.108Z,31.38
2023-04-29T11:28:11.132Z,32.17
2023-04-29T11:29:11.160Z,32.40
2023-04-29T11:30:11.167Z,35.58
2023-04-29T11:31:11.249Z,34.12
2023-04-29T11:32:11.294Z,36.36
2023-04-29T11:33:11.368Z,37.48
2023-04-29T11:34:11.247Z,30.59
2023-04-29T11:35:11.266Z,30.32
2023-04-29T11:36:11.292Z,37.38
2023-04-29T11:37:11.310Z,38.65
2023-04-29T11:38:11.325Z,40.07
2023-04-29T11:39:11.338Z,39.84
2023-04-29T11:40:11.450Z,37.84
2023-04-29T11:41:11.409Z,38.68
2023-04-29T11:42:11.374Z,38.74
2023-04-29T11:43:11.388Z,39.80
2023-04-29T11:44:11.411Z,38.07
2023-04-29T11:45:11.415Z,40.90
2023-04-29T11:46:11.448Z,39.11
2023-04-29T11:47:11.434Z,39.91
2023-04-29T11:48:11.482Z,39.69
2023-04-29T11:49:11.479Z,39.29
2023-04-29T11:50:11.488Z,39.35
2023-04-29T11:51:11.388Z,39.46
2023-04-29T11:52:11.354Z,39.36
2023-04-29T11:53:11.326Z,38.54
2023-04-29T11:54:11.290Z,39.02
2023-04-29T11:55:11.247Z,36.04
2023-04-29T11:56:11.217Z,34.50
2023-04-29T11:57:11.181Z,36.23
2023-04-29T11:58:11.153Z,33.66
2023-04-29T11:59:11.119Z,34.04
2023-04-29T12:00:11.067Z,32.91
2023-04-29T12:01:11.058Z,32.82
2023-04-29T12:02:11.024Z,33.04
2023-04-29T12:03:11.085Z,32.13
2023-04-29T12:04:11.156Z,31.70
2023-04-29T12:05:11.066Z,30.03
2023-04-29T12:06:10.954Z,32.67
2023-04-29T12:07:10.966Z,32.66
2023-04-29T12:08:10.909Z,32.84
2023-04-29T12:09:10.884Z,33.09
2023-04-29T12:10:11.022Z,32.42
2023-04-29T12:11:10.803Z,34.55
2023-04-29T12:12:10.767Z,33.57
2023-04-29T12:13:10.750Z,34.08
2023-04-29T12:14:10.720Z,30.27
2023-04-29T12:15:10.768Z,34.15
2023-04-29T12:16:10.653Z,32.08
2023-04-29T12:17:10.616Z,34.27
2023-04-29T12:18:10.610Z,35.52
2023-04-29T12:19:10.563Z,33.09
2023-04-29T12:20:10.794Z,36.51
2023-04-29T12:21:10.512Z,33.76
2023-04-29T12:22:10.531Z,36.26
2023-04-29T12:23:10.556Z,38.44
2023-04-29T12:24:10.616Z,38.77
2023-04-29T12:25:10.634Z,36.95
2023-04-29T12:26:10.648Z,37.87
2023-04-29T12:27:10.647Z,36.26
2023-04-29T12:28:10.674Z,38.66
2023-04-29T12:29:10.690Z,37.69
2023-04-29T12:30:10.800Z,34.81
2023-04-29T12:31:10.741Z,36.44
2023-04-29T12:32:10.738Z,35.78
2023-04-29T12:33:10.817Z,38.27
2023-04-29T12:34:10.766Z,37.12
2023-04-29T12:35:10.805Z,34.60
2023-04-29T12:36:10.798Z,37.37
2023-04-29T12:37:10.814Z,36.72